createdAt,value
2019-05-10T00:02:17.669Z,8.30
2019-05-10T00:06:00.942Z,8.23
2019-05-10T00:09:26.770Z,8.23
2019-05-10T00:12:54.658Z,8.14
2019-05-10T00:16:20.401Z,8.18
2019-05-10T00:19:47.155Z,8.06
2019-05-10T00:23:12.875Z,8.00
2019-05-10T00:26:38.621Z,8.02
2019-05-10T00:30:08.308Z,8.01
2019-05-10T00:33:35.554Z,7.94
2019-05-10T00:37:01.194Z,7.83
2019-05-10T00:40:26.841Z,7.89
2019-05-10T00:43:52.490Z,7.89
2019-05-10T00:47:18.242Z,7.73
2019-05-10T00:50:44.014Z,7.62
2019-05-10T00:54:09.770Z,7.59
2019-05-10T00:57:35.428Z,7.53
2019-05-10T01:01:01.041Z,7.60
2019-05-10T01:04:27.020Z,7.59
2019-05-10T01:07:52.660Z,7.61
2019-05-10T01:11:18.286Z,7.54
2019-05-10T01:14:43.998Z,7.59
2019-05-10T01:18:09.647Z,7.56
2019-05-10T01:21:35.934Z,7.57
2019-05-10T01:25:01.575Z,7.50
2019-05-10T01:28:27.416Z,7.55
2019-05-10T01:31:53.105Z,7.49
2019-05-10T01:35:18.719Z,7.51
2019-05-10T01:38:44.452Z,7.45
2019-05-10T01:42:11.890Z,7.44
2019-05-10T01:45:37.539Z,7.44
2019-05-10T01:49:03.163Z,7.41
2019-05-10T01:52:28.787Z,7.31
2019-05-10T01:55:54.375Z,7.30
2019-05-10T01:59:20.015Z,7.24
2019-05-10T02:02:50.335Z,7.28
2019-05-10T02:06:17.667Z,7.17
2019-05-10T02:09:43.283Z,7.15
2019-05-10T02:13:08.991Z,7.02
2019-05-10T02:16:34.695Z,6.98
2019-05-10T02:20:00.341Z,6.99
2019-05-10T02:23:25.931Z,7.01
2019-05-10T02:26:51.537Z,6.94
2019-05-10T02:30:17.810Z,6.82
2019-05-10T02:33:43.505Z,6.81
2019-05-10T02:37:09.333Z,6.87
2019-05-10T02:40:34.944Z,6.77
2019-05-10T02:44:00.689Z,6.60
2019-05-10T02:47:26.331Z,6.48
2019-05-10T02:50:52.739Z,6.35
2019-05-10T02:54:19.083Z,6.18
2019-05-10T02:57:45.602Z,6.09
2019-05-10T03:01:14.289Z,5.94
2019-05-10T03:04:39.998Z,5.82
2019-05-10T03:08:06.301Z,5.76
2019-05-10T03:11:50.264Z,5.65
2019-05-10T03:15:16.600Z,5.59
2019-05-10T03:18:45.904Z,5.58
2019-05-10T03:22:11.581Z,5.57
2019-05-10T03:25:37.415Z,5.66
2019-05-10T03:29:03.225Z,5.68
2019-05-10T03:32:28.853Z,5.69
2019-05-10T03:35:54.451Z,5.67
2019-05-10T03:39:20.089Z,5.69
2019-05-10T03:42:45.710Z,5.57
2019-05-10T03:46:11.343Z,5.68
2019-05-10T03:49:36.968Z,5.65
2019-05-10T03:53:02.603Z,5.65
2019-05-10T03:56:30.064Z,5.78
2019-05-10T03:59:55.571Z,5.68
2019-05-10T04:03:21.255Z,5.79
2019-05-10T04:06:46.889Z,5.81
2019-05-10T04:10:29.896Z,5.83
2019-05-10T04:13:55.465Z,5.72
2019-05-10T04:17:21.097Z,5.65
2019-05-10T04:20:46.696Z,5.58
2019-05-10T04:24:12.336Z,5.46
2019-05-10T04:27:37.943Z,5.39
2019-05-10T04:31:03.752Z,5.31
2019-05-10T04:34:29.407Z,5.26
2019-05-10T04:37:55.279Z,5.22
2019-05-10T04:41:21.114Z,5.23
2019-05-10T04:44:46.721Z,5.23
2019-05-10T04:48:13.040Z,5.24
2019-05-10T04:51:38.785Z,5.27
2019-05-10T04:55:07.195Z,5.32
2019-05-10T04:58:33.115Z,5.42
2019-05-10T05:01:58.708Z,5.41
2019-05-10T05:05:24.332Z,5.43
2019-05-10T05:08:50.330Z,5.52
2019-05-10T05:12:15.945Z,5.60
2019-05-10T05:15:41.530Z,5.75
2019-05-10T05:19:07.116Z,5.78
2019-05-10T05:22:32.731Z,5.85
2019-05-10T05:25:58.394Z,5.96
2019-05-10T05:29:26.580Z,6.31
2019-05-10T05:32:52.184Z,6.72
2019-05-10T05:36:17.768Z,7.01
2019-05-10T05:39:43.366Z,7.36
2019-05-10T05:43:09.916Z,7.31
2019-05-10T05:46:36.010Z,7.61
2019-05-10T05:50:01.585Z,7.66
2019-05-10T05:53:27.193Z,7.61
2019-05-10T05:56:53.198Z,7.76
2019-05-10T06:00:19.227Z,7.83
2019-05-10T06:03:44.834Z,7.94
2019-05-10T06:07:10.620Z,8.06
2019-05-10T06:10:36.193Z,8.08
2019-05-10T06:14:03.867Z,8.23
2019-05-10T06:17:31.526Z,8.18
2019-05-10T06:20:56.416Z,8.27
2019-05-10T06:24:21.999Z,8.39
2019-05-10T06:27:47.695Z,8.50
2019-05-10T06:31:13.283Z,8.60
2019-05-10T06:34:40.314Z,8.72
2019-05-10T06:38:05.931Z,8.90
2019-05-10T06:41:32.712Z,8.84
2019-05-10T06:44:58.356Z,8.89
2019-05-10T06:48:27.422Z,8.94
2019-05-10T06:51:51.242Z,9.18
2019-05-10T06:55:17.995Z,9.28
2019-05-10T06:58:43.569Z,9.38
2019-05-10T07:02:09.179Z,9.52
2019-05-10T07:05:34.764Z,9.61
2019-05-10T07:09:00.782Z,9.59
2019-05-10T07:12:30.126Z,9.49
2019-05-10T07:15:55.502Z,9.53
2019-05-10T07:19:21.087Z,9.60
2019-05-10T07:22:46.740Z,9.68
2019-05-10T07:26:17.662Z,9.69
2019-05-10T07:29:43.476Z,9.79
2019-05-10T07:33:06.957Z,9.90
2019-05-10T07:36:33.014Z,9.74
2019-05-10T07:39:58.590Z,9.60
2019-05-10T07:43:28.581Z,9.72
2019-05-10T07:46:56.379Z,9.90
2019-05-10T07:50:20.883Z,9.95
2019-05-10T07:53:46.450Z,9.76
2019-05-10T07:57:12.069Z,10.08
2019-05-10T08:00:43.876Z,10.28
2019-05-10T08:04:05.035Z,10.42
2019-05-10T08:07:30.959Z,10.57
2019-05-10T08:10:56.567Z,10.53
2019-05-10T08:14:25.087Z,10.70
2019-05-10T08:17:50.955Z,10.87
2019-05-10T08:21:22.512Z,10.98
2019-05-10T08:24:52.086Z,11.02
2019-05-10T08:28:12.744Z,11.38
2019-05-10T08:31:40.790Z,11.58
2019-05-10T08:35:16.441Z,11.51
2019-05-10T08:38:39.703Z,11.65
2019-05-10T08:42:28.563Z,11.65
2019-05-10T08:45:33.600Z,11.74
2019-05-10T08:48:59.196Z,11.93
2019-05-10T08:52:30.682Z,12.09
2019-05-10T08:55:52.623Z,12.31
2019-05-10T08:59:23.805Z,12.07
2019-05-10T09:02:46.925Z,12.15
2019-05-10T09:06:16.757Z,11.92
2019-05-10T09:09:45.788Z,11.61
2019-05-10T09:13:08.012Z,11.97
2019-05-10T09:16:39.261Z,12.21
2019-05-10T09:20:02.722Z,12.34
2019-05-10T09:23:28.234Z,12.69
2019-05-10T09:26:56.999Z,13.03
2019-05-10T09:30:36.641Z,13.11
2019-05-10T09:34:02.709Z,12.80
2019-05-10T09:37:28.295Z,12.83
2019-05-10T09:40:56.244Z,12.75
2019-05-10T09:44:22.900Z,12.83
2019-05-10T09:47:49.813Z,12.70
2019-05-10T09:51:19.075Z,12.73
2019-05-10T09:54:42.722Z,12.79
2019-05-10T09:58:08.660Z,12.82
2019-05-10T10:01:34.279Z,13.18
2019-05-10T10:04:59.884Z,13.45
2019-05-10T10:08:28.104Z,13.35
2019-05-10T10:11:58.070Z,13.67
2019-05-10T10:15:32.202Z,13.99
2019-05-10T10:18:47.811Z,14.18
2019-05-10T10:22:13.487Z,13.61
2019-05-10T10:25:40.700Z,13.48
2019-05-10T10:29:07.270Z,13.29
2019-05-10T10:32:35.040Z,13.36
2019-05-10T10:36:07.470Z,13.36
2019-05-10T10:39:28.814Z,13.29
2019-05-10T10:42:54.451Z,13.32
2019-05-10T10:46:20.165Z,13.59
2019-05-10T10:49:46.028Z,13.67
2019-05-10T10:53:11.610Z,13.49
2019-05-10T10:56:38.316Z,13.63
2019-05-10T11:00:07.667Z,13.71
2019-05-10T11:03:33.393Z,13.88
2019-05-10T11:07:09.878Z,14.07
2019-05-10T11:10:32.512Z,14.00
2019-05-10T11:14:04.821Z,14.06
2019-05-10T11:17:25.410Z,13.98
2019-05-10T11:20:53.990Z,14.30
2019-05-10T11:24:20.750Z,14.40
2019-05-10T11:27:47.576Z,14.42
2019-05-10T11:31:14.678Z,14.77
2019-05-10T11:34:40.289Z,14.70
2019-05-10T11:38:06.628Z,14.80
2019-05-10T11:41:34.280Z,15.02
2019-05-10T11:45:00.769Z,15.69
2019-05-10T11:48:36.289Z,16.21
2019-05-10T11:52:01.453Z,16.12
2019-05-10T11:55:26.579Z,15.83
2019-05-10T11:58:55.608Z,15.93
2019-05-10T12:02:37.025Z,16.23
2019-05-10T12:05:56.574Z,16.12
2019-05-10T12:09:14.985Z,16.29
2019-05-10T12:16:07.894Z,16.49
2019-05-10T12:23:03.420Z,17.38
2019-05-10T12:26:20.603Z,16.66
2019-05-10T12:26:27.894Z,16.99
2019-05-10T12:30:00.752Z,18.11
2019-05-10T12:33:27.419Z,18.03
2019-05-10T12:36:52.002Z,18.02
2019-05-10T12:40:18.152Z,18.65
2019-05-10T12:43:44.024Z,19.33
2019-05-10T12:47:11.323Z,18.70
2019-05-10T12:50:37.122Z,18.77
2019-05-10T12:54:02.731Z,18.76
2019-05-10T12:57:29.100Z,19.43
2019-05-10T13:00:58.851Z,18.60
2019-05-10T13:04:32.361Z,19.49
2019-05-10T13:07:50.469Z,19.65
2019-05-10T13:11:18.884Z,20.33
2019-05-10T13:14:46.526Z,20.00
2019-05-10T13:18:11.967Z,21.42
2019-05-10T13:21:37.512Z,21.92
2019-05-10T13:25:03.279Z,21.05
2019-05-10T13:28:29.256Z,21.93
2019-05-10T13:31:56.791Z,22.42
2019-05-10T13:35:22.284Z,23.17
2019-05-10T13:38:49.133Z,23.43
2019-05-10T13:42:15.185Z,23.39
2019-05-10T13:45:41.011Z,24.35
2019-05-10T13:49:06.619Z,24.18
2019-05-10T13:52:37.822Z,23.55
2019-05-10T13:55:59.665Z,25.27
2019-05-10T13:59:25.565Z,27.65
2019-05-10T14:02:51.338Z,25.68
2019-05-10T14:06:16.946Z,23.83
2019-05-10T14:09:42.584Z,25.95
2019-05-10T14:13:08.185Z,26.34
2019-05-10T14:16:33.842Z,27.00
2019-05-10T14:19:59.435Z,28.97
2019-05-10T14:23:28.898Z,29.16
2019-05-10T14:26:57.339Z,26.32
2019-05-10T14:30:23.489Z,23.12
2019-05-10T14:34:14.161Z,23.89
2019-05-10T14:37:19.781Z,25.61
2019-05-10T14:40:45.530Z,30.28
2019-05-10T14:44:11.147Z,27.87
2019-05-10T14:47:46.812Z,30.56
2019-05-10T14:51:11.258Z,30.84
2019-05-10T14:54:43.305Z,32.01
2019-05-10T14:57:59.176Z,30.22
2019-05-10T15:01:24.797Z,25.07
2019-05-10T15:04:50.477Z,25.25
2019-05-10T15:08:16.100Z,23.46
2019-05-10T15:11:41.713Z,23.42
2019-05-10T15:15:08.354Z,22.25
2019-05-10T15:18:33.975Z,21.54
2019-05-10T15:21:59.596Z,21.05
2019-05-10T15:25:26.154Z,21.00
2019-05-10T15:28:51.787Z,20.98
2019-05-10T15:32:17.366Z,20.94
2019-05-10T15:35:45.825Z,21.75
2019-05-10T15:39:10.283Z,22.83
2019-05-10T15:42:38.174Z,21.21
2019-05-10T15:46:03.211Z,20.60
2019-05-10T15:49:28.897Z,19.82
2019-05-10T15:52:54.586Z,19.99
2019-05-10T15:56:20.172Z,20.09
2019-05-10T15:59:50.819Z,21.53
2019-05-10T16:03:13.104Z,23.47
2019-05-10T16:06:39.469Z,25.89
2019-05-10T16:10:06.481Z,27.10
2019-05-10T16:13:32.085Z,25.37
2019-05-10T16:16:57.676Z,23.41
2019-05-10T16:20:23.324Z,21.97
2019-05-10T16:23:48.916Z,20.14
2019-05-10T16:27:15.062Z,20.03
2019-05-10T16:30:41.650Z,20.41
2019-05-10T16:34:08.124Z,19.82
2019-05-10T16:37:33.792Z,19.49
2019-05-10T16:41:01.590Z,19.31
2019-05-10T16:44:27.534Z,18.89
2019-05-10T16:47:53.600Z,18.20
2019-05-10T16:51:19.163Z,18.03
2019-05-10T16:54:44.855Z,17.84
2019-05-10T16:58:14.996Z,17.91
2019-05-10T17:01:38.128Z,17.92
2019-05-10T17:05:09.806Z,17.98
2019-05-10T17:08:36.875Z,17.85
2019-05-10T17:11:59.681Z,17.55
2019-05-10T17:15:25.572Z,17.13
2019-05-10T17:18:55.218Z,17.17
2019-05-10T17:22:18.454Z,17.05
2019-05-10T17:25:44.050Z,17.19
2019-05-10T17:29:12.776Z,17.03
2019-05-10T17:32:40.018Z,17.00
2019-05-10T17:36:08.286Z,17.09
2019-05-10T17:39:34.256Z,17.02
2019-05-10T17:42:59.999Z,17.09
2019-05-10T17:46:25.593Z,17.10
2019-05-10T17:49:51.204Z,16.88
2019-05-10T17:53:16.871Z,16.73
2019-05-10T17:56:42.464Z,16.82
2019-05-10T18:00:12.335Z,16.76
2019-05-10T18:03:38.180Z,16.73
2019-05-10T18:07:05.944Z,16.66
2019-05-10T18:10:31.552Z,16.59
2019-05-10T18:13:58.104Z,16.36
2019-05-10T18:17:25.968Z,16.26
2019-05-10T18:20:51.064Z,16.27
2019-05-10T18:24:16.661Z,16.24
2019-05-10T18:27:42.251Z,15.93
2019-05-10T18:31:07.843Z,15.99
2019-05-10T18:34:35.496Z,16.06
2019-05-10T18:38:00.987Z,16.10
2019-05-10T18:41:26.646Z,15.75
2019-05-10T18:44:54.135Z,15.45
2019-05-10T18:48:19.623Z,15.48
2019-05-10T18:51:45.241Z,15.38
2019-05-10T18:55:11.161Z,15.30
2019-05-10T18:58:36.750Z,15.28
2019-05-10T19:02:02.363Z,15.39
2019-05-10T19:05:31.640Z,15.02
2019-05-10T19:08:56.416Z,15.11
2019-05-10T19:12:23.402Z,15.27
2019-05-10T19:15:53.088Z,15.34
2019-05-10T19:19:17.675Z,15.36
2019-05-10T19:22:43.347Z,15.35
2019-05-10T19:26:09.010Z,15.21
2019-05-10T19:29:38.526Z,15.03
2019-05-10T19:33:01.928Z,14.68
2019-05-10T19:36:27.518Z,14.58
2019-05-10T19:39:53.665Z,14.57
2019-05-10T19:43:21.887Z,14.55
2019-05-10T19:46:47.766Z,14.56
2019-05-10T19:50:13.678Z,14.44
2019-05-10T19:53:42.137Z,14.30
2019-05-10T19:57:15.061Z,14.23
2019-05-10T20:00:34.612Z,14.08
2019-05-10T20:04:00.463Z,14.05
2019-05-10T20:07:26.048Z,14.00
2019-05-10T20:10:52.518Z,13.98
2019-05-10T20:14:18.141Z,13.85
2019-05-10T20:17:44.049Z,13.82
2019-05-10T20:21:09.977Z,13.72
2019-05-10T20:24:35.658Z,13.66
2019-05-10T20:28:01.249Z,13.65
2019-05-10T20:31:30.487Z,13.54
2019-05-10T20:34:54.480Z,13.40
2019-05-10T20:38:20.559Z,13.43
2019-05-10T20:41:46.655Z,13.39
2019-05-10T20:45:12.878Z,13.29
2019-05-10T20:48:39.567Z,13.18
2019-05-10T20:52:05.619Z,13.10
2019-05-10T20:55:31.411Z,13.13
2019-05-10T20:58:57.075Z,13.12
2019-05-10T21:02:22.703Z,13.07
2019-05-10T21:05:48.305Z,13.12
2019-05-10T21:09:13.899Z,13.08
2019-05-10T21:12:39.533Z,13.12
2019-05-10T21:16:05.454Z,13.04
2019-05-10T21:19:31.429Z,12.96
2019-05-10T21:22:57.027Z,12.96
2019-05-10T21:26:22.635Z,12.89
2019-05-10T21:29:48.235Z,12.74
2019-05-10T21:33:13.845Z,12.75
2019-05-10T21:36:39.436Z,12.71
2019-05-10T21:40:08.433Z,12.63
2019-05-10T21:43:34.045Z,12.56
2019-05-10T21:46:59.654Z,12.51
2019-05-10T21:50:25.259Z,12.52
2019-05-10T21:53:50.912Z,12.49
2019-05-10T21:57:16.501Z,12.45
2019-05-10T22:00:43.922Z,12.40
2019-05-10T22:04:09.691Z,12.39
2019-05-10T22:07:35.300Z,12.31
2019-05-10T22:11:01.066Z,12.32
2019-05-10T22:14:26.664Z,12.31
2019-05-10T22:17:52.285Z,12.23
2019-05-10T22:21:17.976Z,12.28
2019-05-10T22:24:43.584Z,12.22
2019-05-10T22:28:09.179Z,12.17
2019-05-10T22:31:34.770Z,12.15
2019-05-10T22:35:00.386Z,12.06
2019-05-10T22:38:26.125Z,12.05
2019-05-10T22:41:53.071Z,12.03
2019-05-10T22:45:18.916Z,12.02
2019-05-10T22:48:44.524Z,12.00
2019-05-10T22:52:10.118Z,11.99
2019-05-10T22:55:36.831Z,11.86
2019-05-10T22:59:02.423Z,11.90
2019-05-10T23:02:28.032Z,11.84
2019-05-10T23:05:53.622Z,11.88
2019-05-10T23:09:24.850Z,11.95
2019-05-10T23:12:47.025Z,11.97
2019-05-10T23:16:12.628Z,11.83
2019-05-10T23:19:38.225Z,11.76
2019-05-10T23:23:03.816Z,11.67
2019-05-10T23:26:29.473Z,11.70
2019-05-10T23:29:55.025Z,11.72
2019-05-10T23:33:20.639Z,11.70
2019-05-10T23:36:46.235Z,11.52
2019-05-10T23:40:12.356Z,11.48
2019-05-10T23:43:37.950Z,11.50
2019-05-10T23:47:03.563Z,11.48
2019-05-10T23:50:29.153Z,11.45
2019-05-10T23:53:54.793Z,11.40
2019-05-10T23:57:20.403Z,11.41
